Ardrossan, United Kingdom
Current Conditions -  °F | °C
As of 9:20 PM on Thursday 18 Dec 2014 (Local Time) from EGPK Reporting Station
Light Rain Light Rain  
Wind Chill: 37°   Ceiling: Unl
Heat Index: 45°   Visibility: 6mi
Dew Point: 39°   Wind: 17mph
Humidity: 81%   Direction: 260°W
Pressure: 29.53"   Gusts: 33mph
Location:  55.65°N, 4.81°W
Report Text: EGPK 182120Z 26015G29KT 9999 -RA FEW005 SCT015 07/04 Q1000
Loading
Personal Weather Stations






























Interactive Weather Map New forecast layout! Learn more

10-Day Weather Forecast

Advertisements
Track Severe Weather on mobile